sensor_id;sensor_type;location;lat;lon;timestamp;P1;durP1;ratioP1;P2;durP2;ratioP2
11854;SDS011;5987;53.140;8.904;2023-04-25T00:00:31;14.17;;;5.17;;
11854;SDS011;5987;53.140;8.904;2023-04-25T00:03:35;17.27;;;4.73;;
11854;SDS011;5987;53.140;8.904;2023-04-25T00:06:39;21.40;;;5.30;;
11854;SDS011;5987;53.140;8.904;2023-04-25T00:09:44;16.93;;;4.93;;
11854;SDS011;5987;53.140;8.904;2023-04-25T00:12:47;19.17;;;5.50;;
11854;SDS011;5987;53.140;8.904;2023-04-25T00:15:52;19.53;;;4.87;;
11854;SDS011;5987;53.140;8.904;2023-04-25T00:18:57;12.80;;;4.73;;
11854;SDS011;5987;53.140;8.904;2023-04-25T00:22:01;14.27;;;4.50;;
11854;SDS011;5987;53.140;8.904;2023-04-25T00:25:05;18.67;;;5.37;;
11854;SDS011;5987;53.140;8.904;2023-04-25T00:28:09;25.33;;;4.90;;
11854;SDS011;5987;53.140;8.904;2023-04-25T00:31:15;19.30;;;5.40;;
11854;SDS011;5987;53.140;8.904;2023-04-25T00:34:19;14.00;;;5.00;;
11854;SDS011;5987;53.140;8.904;2023-04-25T00:37:22;19.20;;;5.97;;
11854;SDS011;5987;53.140;8.904;2023-04-25T00:40:26;20.63;;;5.00;;
11854;SDS011;5987;53.140;8.904;2023-04-25T00:43:31;21.13;;;5.43;;
11854;SDS011;5987;53.140;8.904;2023-04-25T00:46:37;19.13;;;4.90;;
11854;SDS011;5987;53.140;8.904;2023-04-25T00:49:42;23.70;;;4.97;;
11854;SDS011;5987;53.140;8.904;2023-04-25T00:52:45;20.40;;;4.63;;
11854;SDS011;5987;53.140;8.904;2023-04-25T00:55:50;16.53;;;4.73;;
11854;SDS011;5987;53.140;8.904;2023-04-25T00:58:54;18.43;;;4.87;;
11854;SDS011;5987;53.140;8.904;2023-04-25T01:02:00;17.00;;;4.90;;
11854;SDS011;5987;53.140;8.904;2023-04-25T01:05:04;9.50;;;3.90;;
11854;SDS011;5987;53.140;8.904;2023-04-25T01:08:08;22.97;;;5.70;;
11854;SDS011;5987;53.140;8.904;2023-04-25T01:11:12;14.70;;;4.13;;
11854;SDS011;5987;53.140;8.904;2023-04-25T01:14:16;21.33;;;4.97;;
11854;SDS011;5987;53.140;8.904;2023-04-25T01:17:21;18.43;;;4.27;;
11854;SDS011;5987;53.140;8.904;2023-04-25T01:20:25;16.33;;;3.73;;
11854;SDS011;5987;53.140;8.904;2023-04-25T01:23:31;18.20;;;4.77;;
11854;SDS011;5987;53.140;8.904;2023-04-25T01:26:36;15.00;;;4.43;;
11854;SDS011;5987;53.140;8.904;2023-04-25T01:29:41;19.60;;;4.97;;
11854;SDS011;5987;53.140;8.904;2023-04-25T01:32:45;25.17;;;5.40;;
11854;SDS011;5987;53.140;8.904;2023-04-25T01:35:51;17.57;;;4.43;;
11854;SDS011;5987;53.140;8.904;2023-04-25T01:38:56;17.43;;;4.13;;
11854;SDS011;5987;53.140;8.904;2023-04-25T01:42:00;19.27;;;5.07;;
11854;SDS011;5987;53.140;8.904;2023-04-25T01:45:04;16.40;;;4.60;;
11854;SDS011;5987;53.140;8.904;2023-04-25T01:48:09;23.73;;;5.00;;
11854;SDS011;5987;53.140;8.904;2023-04-25T01:51:15;15.70;;;4.60;;
11854;SDS011;5987;53.140;8.904;2023-04-25T01:54:21;18.57;;;4.37;;
11854;SDS011;5987;53.140;8.904;2023-04-25T01:57:25;28.20;;;4.70;;
11854;SDS011;5987;53.140;8.904;2023-04-25T02:00:28;18.70;;;4.50;;
11854;SDS011;5987;53.140;8.904;2023-04-25T02:03:32;13.40;;;3.97;;
11854;SDS011;5987;53.140;8.904;2023-04-25T02:06:38;12.27;;;4.23;;
11854;SDS011;5987;53.140;8.904;2023-04-25T02:09:42;13.53;;;4.33;;
11854;SDS011;5987;53.140;8.904;2023-04-25T02:12:46;18.30;;;4.40;;
11854;SDS011;5987;53.140;8.904;2023-04-25T02:15:49;11.97;;;3.70;;
11854;SDS011;5987;53.140;8.904;2023-04-25T02:18:53;13.97;;;4.47;;
11854;SDS011;5987;53.140;8.904;2023-04-25T02:21:57;14.30;;;4.43;;
11854;SDS011;5987;53.140;8.904;2023-04-25T02:25:02;13.73;;;3.90;;
11854;SDS011;5987;53.140;8.904;2023-04-25T02:28:07;18.03;;;4.27;;
11854;SDS011;5987;53.140;8.904;2023-04-25T02:31:10;15.43;;;5.37;;
11854;SDS011;5987;53.140;8.904;2023-04-25T02:34:14;18.10;;;3.83;;
11854;SDS011;5987;53.140;8.904;2023-04-25T02:37:17;16.97;;;4.47;;
11854;SDS011;5987;53.140;8.904;2023-04-25T02:40:22;21.77;;;4.33;;
11854;SDS011;5987;53.140;8.904;2023-04-25T02:43:26;15.30;;;3.90;;
11854;SDS011;5987;53.140;8.904;2023-04-25T02:46:29;16.37;;;4.67;;
11854;SDS011;5987;53.140;8.904;2023-04-25T02:49:39;12.07;;;4.57;;
11854;SDS011;5987;53.140;8.904;2023-04-25T02:52:43;14.97;;;4.53;;
11854;SDS011;5987;53.140;8.904;2023-04-25T02:55:47;22.80;;;4.63;;
11854;SDS011;5987;53.140;8.904;2023-04-25T02:58:51;21.13;;;4.63;;
11854;SDS011;5987;53.140;8.904;2023-04-25T03:01:55;13.43;;;3.80;;
11854;SDS011;5987;53.140;8.904;2023-04-25T03:05:07;18.43;;;5.03;;
11854;SDS011;5987;53.140;8.904;2023-04-25T03:08:10;15.70;;;4.43;;
11854;SDS011;5987;53.140;8.904;2023-04-25T03:11:14;15.57;;;4.53;;
11854;SDS011;5987;53.140;8.904;2023-04-25T03:14:18;15.83;;;3.73;;
11854;SDS011;5987;53.140;8.904;2023-04-25T03:17:22;23.97;;;4.40;;
11854;SDS011;5987;53.140;8.904;2023-04-25T03:20:27;20.70;;;4.13;;
11854;SDS011;5987;53.140;8.904;2023-04-25T03:23:31;13.87;;;3.87;;
11854;SDS011;5987;53.140;8.904;2023-04-25T03:26:35;12.00;;;3.20;;
11854;SDS011;5987;53.140;8.904;2023-04-25T03:29:38;14.97;;;4.17;;
11854;SDS011;5987;53.140;8.904;2023-04-25T03:32:43;17.13;;;4.17;;
11854;SDS011;5987;53.140;8.904;2023-04-25T03:35:48;13.70;;;4.00;;
11854;SDS011;5987;53.140;8.904;2023-04-25T03:38:52;16.33;;;4.13;;
11854;SDS011;5987;53.140;8.904;2023-04-25T03:41:56;19.23;;;3.80;;
11854;SDS011;5987;53.140;8.904;2023-04-25T03:44:59;18.17;;;4.00;;
11854;SDS011;5987;53.140;8.904;2023-04-25T03:48:03;19.57;;;4.23;;
11854;SDS011;5987;53.140;8.904;2023-04-25T03:51:09;18.90;;;4.00;;
11854;SDS011;5987;53.140;8.904;2023-04-25T03:54:12;15.20;;;3.53;;
11854;SDS011;5987;53.140;8.904;2023-04-25T03:57:16;18.40;;;3.90;;
11854;SDS011;5987;53.140;8.904;2023-04-25T04:00:19;15.33;;;3.80;;
11854;SDS011;5987;53.140;8.904;2023-04-25T04:03:23;18.70;;;3.57;;
11854;SDS011;5987;53.140;8.904;2023-04-25T04:06:29;19.53;;;4.33;;
11854;SDS011;5987;53.140;8.904;2023-04-25T04:09:33;11.47;;;3.10;;
11854;SDS011;5987;53.140;8.904;2023-04-25T04:12:36;18.20;;;3.57;;
11854;SDS011;5987;53.140;8.904;2023-04-25T04:15:40;12.07;;;3.90;;
11854;SDS011;5987;53.140;8.904;2023-04-25T04:18:45;16.77;;;3.57;;
11854;SDS011;5987;53.140;8.904;2023-04-25T04:21:50;16.73;;;3.93;;
11854;SDS011;5987;53.140;8.904;2023-04-25T04:24:54;15.57;;;3.37;;
11854;SDS011;5987;53.140;8.904;2023-04-25T04:27:58;13.47;;;3.43;;
11854;SDS011;5987;53.140;8.904;2023-04-25T04:31:02;17.43;;;3.47;;
11854;SDS011;5987;53.140;8.904;2023-04-25T04:34:06;14.33;;;2.83;;
11854;SDS011;5987;53.140;8.904;2023-04-25T04:37:12;12.20;;;3.97;;
11854;SDS011;5987;53.140;8.904;2023-04-25T04:40:16;14.83;;;3.90;;
11854;SDS011;5987;53.140;8.904;2023-04-25T04:43:20;13.30;;;3.43;;
11854;SDS011;5987;53.140;8.904;2023-04-25T04:46:24;19.70;;;4.20;;
11854;SDS011;5987;53.140;8.904;2023-04-25T04:49:29;18.93;;;3.20;;
11854;SDS011;5987;53.140;8.904;2023-04-25T04:52:34;19.73;;;3.53;;
11854;SDS011;5987;53.140;8.904;2023-04-25T04:55:38;14.70;;;3.37;;
11854;SDS011;5987;53.140;8.904;2023-04-25T04:58:43;12.03;;;3.33;;
11854;SDS011;5987;53.140;8.904;2023-04-25T05:01:46;12.63;;;2.67;;
11854;SDS011;5987;53.140;8.904;2023-04-25T05:04:50;12.57;;;2.90;;
11854;SDS011;5987;53.140;8.904;2023-04-25T05:07:58;13.87;;;2.80;;
11854;SDS011;5987;53.140;8.904;2023-04-25T05:11:02;11.60;;;2.47;;
11854;SDS011;5987;53.140;8.904;2023-04-25T05:14:06;9.20;;;3.07;;
11854;SDS011;5987;53.140;8.904;2023-04-25T05:17:09;10.37;;;2.57;;
11854;SDS011;5987;53.140;8.904;2023-04-25T05:20:13;19.27;;;2.73;;
11854;SDS011;5987;53.140;8.904;2023-04-25T05:23:18;13.37;;;2.97;;
11854;SDS011;5987;53.140;8.904;2023-04-25T05:26:22;11.27;;;2.80;;
11854;SDS011;5987;53.140;8.904;2023-04-25T05:29:25;8.03;;;2.30;;
11854;SDS011;5987;53.140;8.904;2023-04-25T05:32:29;19.13;;;3.10;;
11854;SDS011;5987;53.140;8.904;2023-04-25T05:35:33;10.97;;;2.80;;
11854;SDS011;5987;53.140;8.904;2023-04-25T05:38:38;9.93;;;3.23;;
11854;SDS011;5987;53.140;8.904;2023-04-25T05:41:42;15.97;;;3.63;;
11854;SDS011;5987;53.140;8.904;2023-04-25T05:44:45;11.20;;;3.33;;
11854;SDS011;5987;53.140;8.904;2023-04-25T05:47:50;11.37;;;2.83;;
11854;SDS011;5987;53.140;8.904;2023-04-25T05:50:54;10.70;;;3.20;;
11854;SDS011;5987;53.140;8.904;2023-04-25T05:53:59;12.83;;;2.90;;
11854;SDS011;5987;53.140;8.904;2023-04-25T05:57:03;10.80;;;3.23;;
11854;SDS011;5987;53.140;8.904;2023-04-25T06:00:07;13.97;;;2.80;;
11854;SDS011;5987;53.140;8.904;2023-04-25T06:03:12;10.33;;;2.53;;
11854;SDS011;5987;53.140;8.904;2023-04-25T06:06:21;15.23;;;2.50;;
11854;SDS011;5987;53.140;8.904;2023-04-25T06:09:26;10.87;;;3.00;;
11854;SDS011;5987;53.140;8.904;2023-04-25T06:12:30;13.60;;;3.63;;
11854;SDS011;5987;53.140;8.904;2023-04-25T06:15:35;11.97;;;2.80;;
11854;SDS011;5987;53.140;8.904;2023-04-25T06:18:38;16.00;;;3.20;;
11854;SDS011;5987;53.140;8.904;2023-04-25T06:21:42;11.57;;;2.70;;
11854;SDS011;5987;53.140;8.904;2023-04-25T06:24:48;10.13;;;2.57;;
11854;SDS011;5987;53.140;8.904;2023-04-25T06:27:52;11.63;;;2.90;;
11854;SDS011;5987;53.140;8.904;2023-04-25T06:30:55;10.53;;;2.47;;
11854;SDS011;5987;53.140;8.904;2023-04-25T06:33:59;10.00;;;2.70;;
11854;SDS011;5987;53.140;8.904;2023-04-25T06:37:04;7.33;;;2.13;;
11854;SDS011;5987;53.140;8.904;2023-04-25T06:40:09;9.77;;;2.17;;
11854;SDS011;5987;53.140;8.904;2023-04-25T06:43:13;11.63;;;2.40;;
11854;SDS011;5987;53.140;8.904;2023-04-25T06:46:17;11.40;;;1.80;;
11854;SDS011;5987;53.140;8.904;2023-04-25T06:49:21;11.57;;;2.40;;
11854;SDS011;5987;53.140;8.904;2023-04-25T06:52:25;12.90;;;3.20;;
11854;SDS011;5987;53.140;8.904;2023-04-25T06:55:30;11.47;;;2.03;;
11854;SDS011;5987;53.140;8.904;2023-04-25T06:58:33;7.27;;;1.83;;
11854;SDS011;5987;53.140;8.904;2023-04-25T07:01:37;5.80;;;1.80;;
11854;SDS011;5987;53.140;8.904;2023-04-25T07:04:41;5.80;;;2.10;;
11854;SDS011;5987;53.140;8.904;2023-04-25T07:07:46;7.53;;;2.37;;
11854;SDS011;5987;53.140;8.904;2023-04-25T07:10:51;4.23;;;1.40;;
11854;SDS011;5987;53.140;8.904;2023-04-25T07:13:55;6.83;;;1.50;;
11854;SDS011;5987;53.140;8.904;2023-04-25T07:16:59;7.47;;;2.00;;
11854;SDS011;5987;53.140;8.904;2023-04-25T07:20:03;7.10;;;2.07;;
11854;SDS011;5987;53.140;8.904;2023-04-25T07:23:09;8.80;;;2.30;;
11854;SDS011;5987;53.140;8.904;2023-04-25T07:26:14;8.00;;;2.30;;
11854;SDS011;5987;53.140;8.904;2023-04-25T07:29:18;10.43;;;3.00;;
11854;SDS011;5987;53.140;8.904;2023-04-25T07:32:21;10.37;;;2.33;;
11854;SDS011;5987;53.140;8.904;2023-04-25T07:35:25;11.90;;;2.57;;
11854;SDS011;5987;53.140;8.904;2023-04-25T07:38:29;8.60;;;2.10;;
11854;SDS011;5987;53.140;8.904;2023-04-25T07:41:34;11.20;;;3.53;;
11854;SDS011;5987;53.140;8.904;2023-04-25T07:44:38;13.17;;;2.00;;
11854;SDS011;5987;53.140;8.904;2023-04-25T07:47:41;6.13;;;2.13;;
11854;SDS011;5987;53.140;8.904;2023-04-25T07:50:45;7.67;;;2.40;;
11854;SDS011;5987;53.140;8.904;2023-04-25T07:53:49;11.27;;;1.80;;
11854;SDS011;5987;53.140;8.904;2023-04-25T07:56:54;7.87;;;1.73;;
11854;SDS011;5987;53.140;8.904;2023-04-25T07:59:57;6.80;;;1.70;;
11854;SDS011;5987;53.140;8.904;2023-04-25T08:03:03;7.40;;;1.87;;
11854;SDS011;5987;53.140;8.904;2023-04-25T08:06:11;5.47;;;1.73;;
11854;SDS011;5987;53.140;8.904;2023-04-25T08:09:15;12.07;;;1.80;;
11854;SDS011;5987;53.140;8.904;2023-04-25T08:12:20;9.20;;;1.87;;
11854;SDS011;5987;53.140;8.904;2023-04-25T08:15:24;4.87;;;1.53;;
11854;SDS011;5987;53.140;8.904;2023-04-25T08:18:27;6.43;;;1.57;;
11854;SDS011;5987;53.140;8.904;2023-04-25T08:21:32;8.83;;;2.83;;
11854;SDS011;5987;53.140;8.904;2023-04-25T08:24:36;5.63;;;1.83;;
11854;SDS011;5987;53.140;8.904;2023-04-25T08:27:41;8.57;;;2.73;;
11854;SDS011;5987;53.140;8.904;2023-04-25T08:30:45;9.90;;;1.97;;
11854;SDS011;5987;53.140;8.904;2023-04-25T08:33:49;8.77;;;2.03;;
11854;SDS011;5987;53.140;8.904;2023-04-25T08:36:53;7.17;;;1.80;;
11854;SDS011;5987;53.140;8.904;2023-04-25T08:39:57;7.07;;;1.40;;
11854;SDS011;5987;53.140;8.904;2023-04-25T08:43:02;7.57;;;1.83;;
11854;SDS011;5987;53.140;8.904;2023-04-25T08:46:12;4.73;;;1.10;;
11854;SDS011;5987;53.140;8.904;2023-04-25T08:49:21;6.37;;;1.33;;
11854;SDS011;5987;53.140;8.904;2023-04-25T08:52:25;8.13;;;2.03;;
11854;SDS011;5987;53.140;8.904;2023-04-25T08:55:37;5.43;;;1.77;;
11854;SDS011;5987;53.140;8.904;2023-04-25T08:58:46;3.97;;;1.10;;
11854;SDS011;5987;53.140;8.904;2023-04-25T09:01:52;3.77;;;1.20;;
11854;SDS011;5987;53.140;8.904;2023-04-25T09:04:56;6.33;;;1.67;;
11854;SDS011;5987;53.140;8.904;2023-04-25T09:08:00;10.83;;;1.63;;
11854;SDS011;5987;53.140;8.904;2023-04-25T09:11:04;6.03;;;1.50;;
11854;SDS011;5987;53.140;8.904;2023-04-25T09:14:13;10.60;;;1.90;;
11854;SDS011;5987;53.140;8.904;2023-04-25T09:17:18;4.10;;;1.23;;
11854;SDS011;5987;53.140;8.904;2023-04-25T09:20:21;6.63;;;1.40;;
11854;SDS011;5987;53.140;8.904;2023-04-25T09:23:26;4.10;;;1.33;;
11854;SDS011;5987;53.140;8.904;2023-04-25T09:26:29;3.77;;;1.17;;
11854;SDS011;5987;53.140;8.904;2023-04-25T09:29:36;7.33;;;1.50;;
11854;SDS011;5987;53.140;8.904;2023-04-25T09:32:42;8.87;;;1.90;;
11854;SDS011;5987;53.140;8.904;2023-04-25T09:35:46;4.20;;;1.10;;
11854;SDS011;5987;53.140;8.904;2023-04-25T09:38:54;5.07;;;1.53;;
11854;SDS011;5987;53.140;8.904;2023-04-25T09:41:59;4.20;;;1.30;;
11854;SDS011;5987;53.140;8.904;2023-04-25T09:45:04;5.13;;;1.27;;
11854;SDS011;5987;53.140;8.904;2023-04-25T09:48:09;4.43;;;1.47;;
11854;SDS011;5987;53.140;8.904;2023-04-25T09:51:13;4.00;;;1.03;;
11854;SDS011;5987;53.140;8.904;2023-04-25T09:54:17;6.57;;;1.47;;
11854;SDS011;5987;53.140;8.904;2023-04-25T09:57:22;7.47;;;1.63;;
11854;SDS011;5987;53.140;8.904;2023-04-25T10:00:28;7.80;;;1.20;;
11854;SDS011;5987;53.140;8.904;2023-04-25T10:03:35;3.23;;;1.60;;
11854;SDS011;5987;53.140;8.904;2023-04-25T10:06:41;10.27;;;1.70;;
11854;SDS011;5987;53.140;8.904;2023-04-25T10:09:49;6.13;;;1.40;;
11854;SDS011;5987;53.140;8.904;2023-04-25T10:12:57;6.77;;;1.53;;
11854;SDS011;5987;53.140;8.904;2023-04-25T10:16:04;5.30;;;1.00;;
11854;SDS011;5987;53.140;8.904;2023-04-25T10:19:08;7.80;;;1.30;;
11854;SDS011;5987;53.140;8.904;2023-04-25T10:22:13;3.30;;;0.87;;
11854;SDS011;5987;53.140;8.904;2023-04-25T10:25:26;3.00;;;1.47;;
11854;SDS011;5987;53.140;8.904;2023-04-25T10:28:30;2.93;;;1.20;;
11854;SDS011;5987;53.140;8.904;2023-04-25T10:32:01;5.83;;;1.53;;
11854;SDS011;5987;53.140;8.904;2023-04-25T10:35:13;3.53;;;1.47;;
11854;SDS011;5987;53.140;8.904;2023-04-25T10:38:18;2.87;;;1.40;;
11854;SDS011;5987;53.140;8.904;2023-04-25T10:41:22;3.40;;;0.90;;
11854;SDS011;5987;53.140;8.904;2023-04-25T10:44:26;6.13;;;1.37;;
11854;SDS011;5987;53.140;8.904;2023-04-25T10:47:35;5.07;;;1.20;;
11854;SDS011;5987;53.140;8.904;2023-04-25T10:50:48;5.00;;;1.30;;
11854;SDS011;5987;53.140;8.904;2023-04-25T10:53:58;6.27;;;1.70;;
11854;SDS011;5987;53.140;8.904;2023-04-25T10:57:04;7.13;;;1.17;;
11854;SDS011;5987;53.140;8.904;2023-04-25T11:00:09;5.83;;;1.20;;
11854;SDS011;5987;53.140;8.904;2023-04-25T11:03:20;7.13;;;1.37;;
11854;SDS011;5987;53.140;8.904;2023-04-25T11:06:28;4.93;;;1.27;;
11854;SDS011;5987;53.140;8.904;2023-04-25T11:09:50;4.23;;;1.23;;
11854;SDS011;5987;53.140;8.904;2023-04-25T11:12:54;3.57;;;1.30;;
11854;SDS011;5987;53.140;8.904;2023-04-25T11:15:58;7.30;;;1.17;;
11854;SDS011;5987;53.140;8.904;2023-04-25T11:19:15;7.07;;;1.23;;
11854;SDS011;5987;53.140;8.904;2023-04-25T11:22:18;6.83;;;1.40;;
11854;SDS011;5987;53.140;8.904;2023-04-25T11:25:25;3.87;;;1.03;;
11854;SDS011;5987;53.140;8.904;2023-04-25T11:28:29;6.03;;;1.27;;
11854;SDS011;5987;53.140;8.904;2023-04-25T11:31:33;1.87;;;0.90;;
11854;SDS011;5987;53.140;8.904;2023-04-25T11:34:38;4.83;;;1.23;;
11854;SDS011;5987;53.140;8.904;2023-04-25T11:37:45;8.03;;;1.50;;
11854;SDS011;5987;53.140;8.904;2023-04-25T11:40:49;4.47;;;1.30;;
11854;SDS011;5987;53.140;8.904;2023-04-25T11:43:54;8.27;;;1.53;;
11854;SDS011;5987;53.140;8.904;2023-04-25T11:46:57;6.10;;;1.00;;
11854;SDS011;5987;53.140;8.904;2023-04-25T11:50:03;4.43;;;1.47;;
11854;SDS011;5987;53.140;8.904;2023-04-25T11:53:10;6.97;;;1.57;;
11854;SDS011;5987;53.140;8.904;2023-04-25T11:56:14;3.03;;;1.10;;
11854;SDS011;5987;53.140;8.904;2023-04-25T11:59:18;5.33;;;1.13;;
11854;SDS011;5987;53.140;8.904;2023-04-25T12:02:27;5.73;;;1.00;;
11854;SDS011;5987;53.140;8.904;2023-04-25T12:05:33;3.47;;;1.27;;
11854;SDS011;5987;53.140;8.904;2023-04-25T12:08:39;4.80;;;1.10;;
11854;SDS011;5987;53.140;8.904;2023-04-25T12:12:06;3.73;;;1.40;;
11854;SDS011;5987;53.140;8.904;2023-04-25T12:15:26;7.03;;;1.30;;
11854;SDS011;5987;53.140;8.904;2023-04-25T12:18:30;4.63;;;0.90;;
11854;SDS011;5987;53.140;8.904;2023-04-25T12:21:35;3.67;;;1.10;;
11854;SDS011;5987;53.140;8.904;2023-04-25T12:24:57;4.50;;;1.30;;
11854;SDS011;5987;53.140;8.904;2023-04-25T12:28:09;5.30;;;1.03;;
11854;SDS011;5987;53.140;8.904;2023-04-25T12:31:17;9.17;;;1.20;;
11854;SDS011;5987;53.140;8.904;2023-04-25T12:34:21;1.67;;;0.80;;
11854;SDS011;5987;53.140;8.904;2023-04-25T12:37:28;5.87;;;1.13;;
11854;SDS011;5987;53.140;8.904;2023-04-25T12:40:32;5.30;;;1.37;;
11854;SDS011;5987;53.140;8.904;2023-04-25T12:43:36;3.67;;;1.77;;
11854;SDS011;5987;53.140;8.904;2023-04-25T12:46:40;4.07;;;1.10;;
11854;SDS011;5987;53.140;8.904;2023-04-25T12:49:43;4.10;;;1.10;;
11854;SDS011;5987;53.140;8.904;2023-04-25T12:52:48;4.50;;;0.93;;
11854;SDS011;5987;53.140;8.904;2023-04-25T12:55:52;3.27;;;0.93;;
11854;SDS011;5987;53.140;8.904;2023-04-25T12:59:01;4.63;;;1.83;;
11854;SDS011;5987;53.140;8.904;2023-04-25T13:02:05;5.33;;;1.40;;
11854;SDS011;5987;53.140;8.904;2023-04-25T13:05:09;2.60;;;0.97;;
11854;SDS011;5987;53.140;8.904;2023-04-25T13:08:14;5.30;;;1.40;;
11854;SDS011;5987;53.140;8.904;2023-04-25T13:11:17;4.20;;;1.47;;
11854;SDS011;5987;53.140;8.904;2023-04-25T13:14:22;5.30;;;1.17;;
11854;SDS011;5987;53.140;8.904;2023-04-25T13:17:25;3.23;;;1.20;;
11854;SDS011;5987;53.140;8.904;2023-04-25T13:20:29;9.07;;;1.20;;
11854;SDS011;5987;53.140;8.904;2023-04-25T13:23:34;3.40;;;1.20;;
11854;SDS011;5987;53.140;8.904;2023-04-25T13:26:38;2.83;;;1.17;;
11854;SDS011;5987;53.140;8.904;2023-04-25T13:29:41;3.80;;;1.60;;
11854;SDS011;5987;53.140;8.904;2023-04-25T13:32:45;6.00;;;1.00;;
11854;SDS011;5987;53.140;8.904;2023-04-25T13:35:49;6.07;;;1.00;;
11854;SDS011;5987;53.140;8.904;2023-04-25T13:38:56;6.40;;;1.20;;
11854;SDS011;5987;53.140;8.904;2023-04-25T13:42:00;4.50;;;1.00;;
11854;SDS011;5987;53.140;8.904;2023-04-25T13:45:04;3.80;;;1.17;;
11854;SDS011;5987;53.140;8.904;2023-04-25T13:48:10;4.03;;;0.80;;
11854;SDS011;5987;53.140;8.904;2023-04-25T13:51:14;4.33;;;0.97;;
11854;SDS011;5987;53.140;8.904;2023-04-25T13:54:20;5.90;;;1.40;;
11854;SDS011;5987;53.140;8.904;2023-04-25T13:57:24;5.70;;;2.40;;
11854;SDS011;5987;53.140;8.904;2023-04-25T14:00:28;3.53;;;1.03;;
11854;SDS011;5987;53.140;8.904;2023-04-25T14:03:32;4.23;;;1.50;;
11854;SDS011;5987;53.140;8.904;2023-04-25T14:06:36;1.93;;;0.80;;
11854;SDS011;5987;53.140;8.904;2023-04-25T14:09:41;2.37;;;1.00;;
11854;SDS011;5987;53.140;8.904;2023-04-25T14:12:45;3.97;;;1.00;;
11854;SDS011;5987;53.140;8.904;2023-04-25T14:15:49;6.13;;;1.20;;
11854;SDS011;5987;53.140;8.904;2023-04-25T14:18:53;5.83;;;1.30;;
11854;SDS011;5987;53.140;8.904;2023-04-25T14:21:56;3.33;;;0.90;;
11854;SDS011;5987;53.140;8.904;2023-04-25T14:25:02;5.47;;;1.10;;
11854;SDS011;5987;53.140;8.904;2023-04-25T14:28:06;3.33;;;1.20;;
11854;SDS011;5987;53.140;8.904;2023-04-25T14:31:10;3.77;;;0.80;;
11854;SDS011;5987;53.140;8.904;2023-04-25T14:34:14;6.97;;;1.80;;
11854;SDS011;5987;53.140;8.904;2023-04-25T14:37:18;3.93;;;1.30;;
11854;SDS011;5987;53.140;8.904;2023-04-25T14:40:23;4.30;;;1.20;;
11854;SDS011;5987;53.140;8.904;2023-04-25T14:43:28;3.70;;;1.10;;
11854;SDS011;5987;53.140;8.904;2023-04-25T14:46:31;6.53;;;1.23;;
11854;SDS011;5987;53.140;8.904;2023-04-25T14:49:35;5.23;;;1.30;;
11854;SDS011;5987;53.140;8.904;2023-04-25T14:52:39;3.33;;;1.73;;
11854;SDS011;5987;53.140;8.904;2023-04-25T14:55:44;3.43;;;1.00;;
11854;SDS011;5987;53.140;8.904;2023-04-25T14:58:48;3.33;;;0.97;;
11854;SDS011;5987;53.140;8.904;2023-04-25T15:01:52;3.20;;;0.80;;
11854;SDS011;5987;53.140;8.904;2023-04-25T15:04:59;1.77;;;0.83;;
11854;SDS011;5987;53.140;8.904;2023-04-25T15:08:04;1.83;;;0.90;;
11854;SDS011;5987;53.140;8.904;2023-04-25T15:11:10;6.27;;;1.43;;
11854;SDS011;5987;53.140;8.904;2023-04-25T15:14:13;7.70;;;1.73;;
11854;SDS011;5987;53.140;8.904;2023-04-25T15:17:17;4.10;;;0.90;;
11854;SDS011;5987;53.140;8.904;2023-04-25T15:20:21;4.90;;;1.63;;
11854;SDS011;5987;53.140;8.904;2023-04-25T15:23:25;4.40;;;1.30;;
11854;SDS011;5987;53.140;8.904;2023-04-25T15:26:31;4.77;;;1.30;;
11854;SDS011;5987;53.140;8.904;2023-04-25T15:29:35;2.13;;;1.17;;
11854;SDS011;5987;53.140;8.904;2023-04-25T15:32:39;2.67;;;1.13;;
11854;SDS011;5987;53.140;8.904;2023-04-25T15:35:42;6.00;;;1.30;;
11854;SDS011;5987;53.140;8.904;2023-04-25T15:38:47;5.63;;;1.27;;
11854;SDS011;5987;53.140;8.904;2023-04-25T15:41:52;5.43;;;1.57;;
11854;SDS011;5987;53.140;8.904;2023-04-25T15:44:56;5.70;;;1.60;;
11854;SDS011;5987;53.140;8.904;2023-04-25T15:48:00;6.00;;;1.90;;
11854;SDS011;5987;53.140;8.904;2023-04-25T15:51:03;2.27;;;1.37;;
11854;SDS011;5987;53.140;8.904;2023-04-25T15:54:08;8.37;;;1.90;;
11854;SDS011;5987;53.140;8.904;2023-04-25T15:57:13;5.13;;;1.67;;
11854;SDS011;5987;53.140;8.904;2023-04-25T16:00:17;5.63;;;2.10;;
11854;SDS011;5987;53.140;8.904;2023-04-25T16:03:23;9.33;;;1.80;;
11854;SDS011;5987;53.140;8.904;2023-04-25T16:06:27;7.67;;;1.60;;
11854;SDS011;5987;53.140;8.904;2023-04-25T16:09:30;6.70;;;1.97;;
11854;SDS011;5987;53.140;8.904;2023-04-25T16:12:36;6.23;;;1.87;;
11854;SDS011;5987;53.140;8.904;2023-04-25T16:15:40;3.90;;;1.40;;
11854;SDS011;5987;53.140;8.904;2023-04-25T16:18:44;7.87;;;2.37;;
11854;SDS011;5987;53.140;8.904;2023-04-25T16:21:47;8.70;;;1.93;;
11854;SDS011;5987;53.140;8.904;2023-04-25T16:24:52;7.27;;;1.80;;
11854;SDS011;5987;53.140;8.904;2023-04-25T16:27:57;6.13;;;2.27;;
11854;SDS011;5987;53.140;8.904;2023-04-25T16:31:01;2.73;;;2.37;;
11854;SDS011;5987;53.140;8.904;2023-04-25T16:34:05;4.10;;;2.17;;
11854;SDS011;5987;53.140;8.904;2023-04-25T16:37:09;6.37;;;2.27;;
11854;SDS011;5987;53.140;8.904;2023-04-25T16:40:12;7.47;;;2.00;;
11854;SDS011;5987;53.140;8.904;2023-04-25T16:43:17;3.73;;;1.60;;
11854;SDS011;5987;53.140;8.904;2023-04-25T16:46:21;13.10;;;1.90;;
11854;SDS011;5987;53.140;8.904;2023-04-25T16:49:25;7.73;;;2.13;;
11854;SDS011;5987;53.140;8.904;2023-04-25T16:52:29;6.83;;;1.40;;
11854;SDS011;5987;53.140;8.904;2023-04-25T16:55:33;5.13;;;1.30;;
11854;SDS011;5987;53.140;8.904;2023-04-25T16:58:38;7.77;;;1.77;;
11854;SDS011;5987;53.140;8.904;2023-04-25T17:01:42;9.10;;;1.77;;
11854;SDS011;5987;53.140;8.904;2023-04-25T17:04:46;4.90;;;2.10;;
11854;SDS011;5987;53.140;8.904;2023-04-25T17:07:49;7.17;;;1.70;;
11854;SDS011;5987;53.140;8.904;2023-04-25T17:10:53;4.93;;;1.27;;
11854;SDS011;5987;53.140;8.904;2023-04-25T17:13:58;6.83;;;1.63;;
11854;SDS011;5987;53.140;8.904;2023-04-25T17:17:02;4.83;;;1.43;;
11854;SDS011;5987;53.140;8.904;2023-04-25T17:20:06;4.97;;;1.30;;
11854;SDS011;5987;53.140;8.904;2023-04-25T17:23:11;3.90;;;1.30;;
11854;SDS011;5987;53.140;8.904;2023-04-25T17:26:15;4.67;;;2.23;;
11854;SDS011;5987;53.140;8.904;2023-04-25T17:29:20;9.50;;;1.47;;
11854;SDS011;5987;53.140;8.904;2023-04-25T17:32:24;9.27;;;1.57;;
11854;SDS011;5987;53.140;8.904;2023-04-25T17:35:28;4.93;;;1.30;;
11854;SDS011;5987;53.140;8.904;2023-04-25T17:38:34;6.87;;;1.40;;
11854;SDS011;5987;53.140;8.904;2023-04-25T17:41:39;8.03;;;1.40;;
11854;SDS011;5987;53.140;8.904;2023-04-25T17:44:44;2.47;;;1.10;;
11854;SDS011;5987;53.140;8.904;2023-04-25T17:47:48;4.17;;;1.13;;
11854;SDS011;5987;53.140;8.904;2023-04-25T17:50:51;5.43;;;1.57;;
11854;SDS011;5987;53.140;8.904;2023-04-25T17:53:55;13.07;;;1.90;;
11854;SDS011;5987;53.140;8.904;2023-04-25T17:56:59;9.73;;;1.33;;
11854;SDS011;5987;53.140;8.904;2023-04-25T18:00:05;5.40;;;1.10;;
11854;SDS011;5987;53.140;8.904;2023-04-25T18:03:12;5.97;;;1.60;;
11854;SDS011;5987;53.140;8.904;2023-04-25T18:06:17;6.17;;;1.77;;
11854;SDS011;5987;53.140;8.904;2023-04-25T18:09:20;5.27;;;1.53;;
11854;SDS011;5987;53.140;8.904;2023-04-25T18:12:25;7.30;;;1.50;;
11854;SDS011;5987;53.140;8.904;2023-04-25T18:15:30;5.70;;;1.27;;
11854;SDS011;5987;53.140;8.904;2023-04-25T18:18:34;5.40;;;1.50;;
11854;SDS011;5987;53.140;8.904;2023-04-25T18:21:39;4.20;;;1.50;;
11854;SDS011;5987;53.140;8.904;2023-04-25T18:24:43;5.70;;;1.60;;
11854;SDS011;5987;53.140;8.904;2023-04-25T18:27:46;5.77;;;2.57;;
11854;SDS011;5987;53.140;8.904;2023-04-25T18:30:53;6.37;;;1.87;;
11854;SDS011;5987;53.140;8.904;2023-04-25T18:33:57;6.50;;;1.60;;
11854;SDS011;5987;53.140;8.904;2023-04-25T18:37:01;5.30;;;1.40;;
11854;SDS011;5987;53.140;8.904;2023-04-25T18:40:05;7.83;;;1.37;;
11854;SDS011;5987;53.140;8.904;2023-04-25T18:43:14;7.77;;;1.20;;